createdAt,value
2019-01-14T00:00:23.702Z,7.10
2019-01-14T00:02:55.020Z,7.10
2019-01-14T00:05:23.664Z,7.20
2019-01-14T00:07:52.133Z,7.20
2019-01-14T00:10:20.706Z,7.30
2019-01-14T00:12:49.493Z,7.30
2019-01-14T00:15:18.193Z,7.40
2019-01-14T00:17:46.764Z,7.40
2019-01-14T00:20:15.865Z,7.40
2019-01-14T00:22:44.404Z,7.40
2019-01-14T00:25:13.413Z,7.30
2019-01-14T00:27:41.945Z,7.30
2019-01-14T00:30:13.284Z,7.30
2019-01-14T00:32:41.790Z,7.30
2019-01-14T00:35:10.353Z,7.40
2019-01-14T00:37:38.762Z,7.40
2019-01-14T00:40:10.237Z,7.40
2019-01-14T00:42:38.820Z,7.40
2019-01-14T00:45:08.534Z,7.50
2019-01-14T00:47:36.893Z,7.50
2019-01-14T00:50:05.829Z,7.50
2019-01-14T00:52:34.142Z,7.50
2019-01-14T00:55:02.645Z,7.60
2019-01-14T00:57:31.584Z,7.60
2019-01-14T00:59:59.895Z,7.60
2019-01-14T01:02:28.445Z,7.60
2019-01-14T01:04:56.870Z,7.60
2019-01-14T01:07:25.286Z,7.60
2019-01-14T01:09:53.598Z,7.50
2019-01-14T01:12:21.986Z,7.60
2019-01-14T01:14:50.297Z,7.60
2019-01-14T01:17:19.266Z,7.60
2019-01-14T01:19:47.717Z,7.70
2019-01-14T01:22:16.286Z,7.60
2019-01-14T01:24:44.681Z,7.60
2019-01-14T01:27:13.140Z,7.60
2019-01-14T01:29:41.456Z,7.60
2019-01-14T01:32:09.984Z,7.60
2019-01-14T01:34:38.432Z,7.60
2019-01-14T01:37:06.805Z,7.60
2019-01-14T01:39:35.713Z,7.70
2019-01-14T01:42:04.289Z,7.70
2019-01-14T01:44:32.684Z,7.70
2019-01-14T01:47:01.063Z,7.60
2019-01-14T01:49:29.989Z,7.60
2019-01-14T01:51:58.530Z,7.60
2019-01-14T01:54:27.012Z,7.60
2019-01-14T01:56:55.469Z,7.50
2019-01-14T01:59:23.773Z,7.50
2019-01-14T02:01:52.206Z,7.40
2019-01-14T02:04:20.919Z,7.40
2019-01-14T02:06:49.296Z,7.40
2019-01-14T02:09:17.661Z,7.40
2019-01-14T02:11:46.125Z,7.50
2019-01-14T02:14:14.928Z,7.50
2019-01-14T02:16:43.767Z,7.60
2019-01-14T02:19:12.273Z,7.60
2019-01-14T02:21:40.647Z,7.70
2019-01-14T02:24:09.117Z,7.70
2019-01-14T02:26:37.613Z,7.70
2019-01-14T02:29:06.092Z,7.80
2019-01-14T02:31:34.597Z,7.80
2019-01-14T02:34:04.415Z,7.80
2019-01-14T02:36:32.721Z,7.80
2019-01-14T02:39:01.290Z,7.80
2019-01-14T02:41:31.429Z,7.80
2019-01-14T02:43:59.889Z,7.80
2019-01-14T02:46:28.212Z,7.80
2019-01-14T02:48:56.777Z,7.80
2019-01-14T02:51:25.091Z,7.90
2019-01-14T02:53:53.462Z,7.90
2019-01-14T02:56:21.922Z,7.80
2019-01-14T02:58:50.283Z,7.80
2019-01-14T03:01:18.762Z,7.90
2019-01-14T03:03:48.146Z,7.90
2019-01-14T03:06:16.919Z,7.90
2019-01-14T03:08:45.233Z,7.90
2019-01-14T03:11:13.822Z,7.90
2019-01-14T03:13:42.146Z,7.90
2019-01-14T03:16:10.586Z,7.90
2019-01-14T03:18:38.967Z,7.90
2019-01-14T03:21:07.452Z,7.90
2019-01-14T03:23:35.789Z,8.00
2019-01-14T03:26:04.732Z,8.00
2019-01-14T03:28:35.949Z,8.00
2019-01-14T03:31:04.520Z,8.00
2019-01-14T03:33:32.970Z,8.00
2019-01-14T03:36:02.559Z,8.00
2019-01-14T03:38:35.694Z,8.00
2019-01-14T03:41:04.505Z,8.00
2019-01-14T03:43:35.781Z,8.00
2019-01-14T03:46:04.317Z,8.00
2019-01-14T03:48:35.706Z,8.00
2019-01-14T03:51:04.376Z,8.00
2019-01-14T03:53:32.684Z,8.00
2019-01-14T03:56:01.138Z,8.00
2019-01-14T03:58:29.549Z,8.00
2019-01-14T04:00:58.073Z,8.10
2019-01-14T04:03:26.579Z,8.10
2019-01-14T04:05:55.116Z,8.10
2019-01-14T04:08:24.030Z,8.10
2019-01-14T04:10:52.634Z,8.20
2019-01-14T04:13:20.941Z,8.20
2019-01-14T04:15:49.494Z,8.20
2019-01-14T04:18:17.905Z,8.30
2019-01-14T04:20:46.342Z,8.30
2019-01-14T04:23:14.732Z,8.40
2019-01-14T04:25:43.290Z,8.40
2019-01-14T04:28:11.797Z,8.40
2019-01-14T04:30:40.469Z,8.40
2019-01-14T04:33:09.284Z,8.50
2019-01-14T04:35:37.653Z,8.50
2019-01-14T04:38:06.255Z,8.50
2019-01-14T04:40:34.841Z,8.50
2019-01-14T04:43:07.441Z,8.50
2019-01-14T04:45:37.260Z,8.50
2019-01-14T04:48:05.671Z,8.60
2019-01-14T04:50:34.142Z,8.60
2019-01-14T04:53:02.653Z,8.60
2019-01-14T04:55:31.494Z,8.70
2019-01-14T04:57:59.905Z,8.70
2019-01-14T05:00:28.493Z,8.70
2019-01-14T05:02:57.165Z,8.70
2019-01-14T05:05:25.814Z,8.70
2019-01-14T05:07:54.293Z,8.70
2019-01-14T05:10:22.830Z,8.70
2019-01-14T05:12:51.400Z,8.70
2019-01-14T05:15:20.009Z,8.80
2019-01-14T05:17:48.625Z,8.80
2019-01-14T05:20:20.872Z,8.80
2019-01-14T05:22:49.373Z,8.80
2019-01-14T05:25:18.675Z,8.80
2019-01-14T05:27:47.189Z,8.80
2019-01-14T05:30:16.488Z,8.80
2019-01-14T05:32:44.992Z,8.80
2019-01-14T05:35:13.874Z,8.80
2019-01-14T05:37:43.335Z,8.80
2019-01-14T05:40:15.556Z,8.90
2019-01-14T05:42:44.213Z,8.80
2019-01-14T05:45:12.919Z,8.80
2019-01-14T05:47:41.450Z,8.80
2019-01-14T05:50:11.510Z,8.80
2019-01-14T05:52:39.813Z,8.80
2019-01-14T05:55:25.671Z,8.80
2019-01-14T05:57:54.085Z,8.70
2019-01-14T06:00:39.325Z,8.70
2019-01-14T06:03:07.733Z,8.60
2019-01-14T06:05:36.195Z,8.60
2019-01-14T06:08:04.820Z,8.50
2019-01-14T06:10:33.388Z,8.50
2019-01-14T06:13:01.717Z,8.40
2019-01-14T06:15:30.337Z,8.30
2019-01-14T06:17:58.789Z,8.30
2019-01-14T06:20:28.441Z,8.20
2019-01-14T06:22:56.761Z,8.10
2019-01-14T06:25:25.194Z,8.10
2019-01-14T06:27:53.505Z,8.10
2019-01-14T06:30:24.085Z,8.10
2019-01-14T06:32:52.601Z,8.10
2019-01-14T06:35:21.230Z,8.10
2019-01-14T06:37:52.617Z,8.20
2019-01-14T06:40:20.506Z,8.20
2019-01-14T06:42:49.009Z,8.20
2019-01-14T06:45:17.547Z,8.20
2019-01-14T06:47:46.052Z,8.10
2019-01-14T06:50:15.879Z,8.10
2019-01-14T06:52:44.360Z,8.10
2019-01-14T06:55:13.942Z,8.10
2019-01-14T06:57:42.390Z,8.00
2019-01-14T07:00:14.505Z,8.00
2019-01-14T07:02:42.919Z,8.00
2019-01-14T07:05:11.604Z,8.00
2019-01-14T07:07:40.015Z,8.00
2019-01-14T07:10:11.656Z,8.00
2019-01-14T07:12:40.166Z,8.00
2019-01-14T07:15:08.793Z,8.10
2019-01-14T07:17:37.184Z,8.10
2019-01-14T07:20:06.526Z,8.10
2019-01-14T07:22:34.925Z,8.10
2019-01-14T07:25:03.906Z,8.20
2019-01-14T07:27:32.322Z,8.20
2019-01-14T07:30:00.793Z,8.20
2019-01-14T07:32:29.182Z,8.20
2019-01-14T07:34:57.698Z,8.30
2019-01-14T07:37:26.053Z,8.30
2019-01-14T07:39:54.952Z,8.20
2019-01-14T07:42:23.275Z,8.20
2019-01-14T07:44:51.725Z,8.20
2019-01-14T07:47:21.159Z,8.20
2019-01-14T07:49:49.536Z,8.20
2019-01-14T07:52:18.037Z,8.30
2019-01-14T07:54:46.628Z,8.30
2019-01-14T07:57:15.226Z,8.30
2019-01-14T07:59:45.562Z,8.30
2019-01-14T08:02:14.042Z,8.30
2019-01-14T08:04:42.433Z,8.30
2019-01-14T08:07:10.855Z,8.40
2019-01-14T08:09:39.273Z,8.40
2019-01-14T08:12:07.677Z,8.40
2019-01-14T08:14:36.163Z,8.40
2019-01-14T08:17:04.632Z,8.40
2019-01-14T08:19:33.178Z,8.50
2019-01-14T08:22:01.692Z,8.50
2019-01-14T08:24:30.354Z,8.50
2019-01-14T08:26:58.823Z,8.50
2019-01-14T08:29:27.156Z,8.50
2019-01-14T08:31:55.710Z,8.50
2019-01-14T08:34:24.679Z,8.50
2019-01-14T08:36:53.061Z,8.50
2019-01-14T08:39:21.585Z,8.50
2019-01-14T08:41:57.461Z,8.50
2019-01-14T08:44:32.589Z,8.50
2019-01-14T08:47:01.006Z,8.50
2019-01-14T08:49:29.692Z,8.50
2019-01-14T08:51:58.459Z,8.50
2019-01-14T08:54:32.937Z,8.50
2019-01-14T08:57:01.457Z,8.50
2019-01-14T08:59:31.093Z,8.60
2019-01-14T09:01:59.434Z,8.50
2019-01-14T09:04:32.461Z,8.50
2019-01-14T09:06:59.031Z,8.60
2019-01-14T09:09:27.493Z,8.50
2019-01-14T09:11:56.001Z,8.50
2019-01-14T09:14:24.489Z,8.50
2019-01-14T09:16:53.009Z,8.50
2019-01-14T09:19:21.837Z,8.50
2019-01-14T09:21:50.178Z,8.50
2019-01-14T09:24:19.182Z,8.50
2019-01-14T09:26:50.230Z,8.50
2019-01-14T09:29:19.093Z,8.50
2019-01-14T09:31:48.338Z,8.50
2019-01-14T09:34:16.737Z,8.40
2019-01-14T09:36:45.561Z,8.40
2019-01-14T09:39:14.277Z,8.40
2019-01-14T09:41:49.181Z,8.50
2019-01-14T09:44:17.611Z,8.50
2019-01-14T09:46:45.981Z,8.50
2019-01-14T09:49:14.462Z,8.50
2019-01-14T09:51:42.782Z,8.50
2019-01-14T09:54:11.236Z,8.50
2019-01-14T09:56:39.661Z,8.50
2019-01-14T09:59:08.050Z,8.50
2019-01-14T10:01:36.564Z,8.50
2019-01-14T10:04:05.250Z,8.60
2019-01-14T10:06:33.676Z,8.60
2019-01-14T10:09:04.067Z,8.70
2019-01-14T10:11:33.746Z,8.70
2019-01-14T10:14:03.306Z,8.80
2019-01-14T10:16:36.268Z,8.90
2019-01-14T10:19:05.262Z,8.90
2019-01-14T10:21:33.919Z,9.10
2019-01-14T10:24:02.431Z,9.20
2019-01-14T10:26:33.062Z,9.20
2019-01-14T10:29:01.725Z,9.30
2019-01-14T10:31:30.206Z,9.40
2019-01-14T10:33:58.624Z,9.40
2019-01-14T10:36:26.952Z,9.40
2019-01-14T10:38:56.324Z,9.40
2019-01-14T10:41:24.641Z,9.50
2019-01-14T10:43:53.081Z,9.50
2019-01-14T10:46:21.718Z,9.50
2019-01-14T10:48:50.247Z,9.50
2019-01-14T10:51:19.293Z,9.50
2019-01-14T10:53:47.906Z,9.50
2019-01-14T10:56:16.503Z,9.40
2019-01-14T10:58:45.009Z,9.20
2019-01-14T11:01:13.725Z,9.20
2019-01-14T11:03:42.152Z,9.10
2019-01-14T11:06:10.725Z,9.20
2019-01-14T11:08:39.208Z,9.40
2019-01-14T11:11:07.773Z,9.60
2019-01-14T11:13:36.081Z,9.90
2019-01-14T11:16:04.626Z,10.20
2019-01-14T11:18:33.036Z,10.30
2019-01-14T11:21:01.565Z,10.20
2019-01-14T11:23:30.265Z,10.10
2019-01-14T11:25:58.943Z,9.90
2019-01-14T11:28:29.821Z,9.70
2019-01-14T11:30:58.132Z,9.60
2019-01-14T11:33:26.642Z,9.50
2019-01-14T11:35:55.058Z,9.40
2019-01-14T11:38:55.149Z,9.40
2019-01-14T11:41:24.854Z,9.40
2019-01-14T11:43:53.202Z,9.40
2019-01-14T11:46:21.665Z,9.30
2019-01-14T11:48:50.042Z,9.30
2019-01-14T11:51:18.518Z,9.20
2019-01-14T11:53:46.957Z,9.20
2019-01-14T11:56:15.426Z,9.20
2019-01-14T11:58:44.022Z,9.20
2019-01-14T12:01:12.500Z,9.30
2019-01-14T12:03:40.842Z,9.30
2019-01-14T12:06:09.403Z,9.40
2019-01-14T12:08:37.828Z,9.60
2019-01-14T12:11:06.337Z,9.80
2019-01-14T12:13:34.819Z,10.10
2019-01-14T12:16:03.428Z,10.30
2019-01-14T12:18:32.034Z,10.30
2019-01-14T12:21:00.464Z,10.30
2019-01-14T12:23:28.965Z,10.40
2019-01-14T12:25:57.384Z,10.50
2019-01-14T12:28:25.945Z,10.60
2019-01-14T12:30:54.553Z,10.70
2019-01-14T12:33:23.109Z,10.70
2019-01-14T12:35:51.771Z,10.70
2019-01-14T12:38:20.280Z,10.60
2019-01-14T12:40:48.930Z,10.60
2019-01-14T12:43:17.353Z,10.60
2019-01-14T12:45:45.957Z,10.60
2019-01-14T12:48:14.373Z,10.70
2019-01-14T12:50:42.833Z,10.80
2019-01-14T12:53:11.257Z,10.90
2019-01-14T12:55:39.786Z,11.30
2019-01-14T12:58:08.313Z,12.00
2019-01-14T13:00:36.881Z,13.00
2019-01-14T13:03:05.796Z,14.50
2019-01-14T13:05:34.345Z,15.50
2019-01-14T13:08:02.774Z,15.80
2019-01-14T13:10:31.453Z,16.50
2019-01-14T13:13:00.097Z,17.40
2019-01-14T13:15:29.356Z,17.90
2019-01-14T13:17:59.181Z,17.80
2019-01-14T13:20:30.497Z,17.20
2019-01-14T13:22:59.061Z,16.40
2019-01-14T13:25:28.810Z,15.60
2019-01-14T13:27:57.686Z,15.10
2019-01-14T13:30:28.312Z,15.20
2019-01-14T13:32:57.713Z,15.40
2019-01-14T13:35:26.556Z,15.30
2019-01-14T13:37:55.279Z,14.90
2019-01-14T13:40:23.872Z,14.60
2019-01-14T13:42:52.696Z,14.10
2019-01-14T13:45:21.505Z,13.80
2019-01-14T13:47:50.973Z,13.50
2019-01-14T13:50:21.613Z,13.50
2019-01-14T13:52:49.934Z,13.40
2019-01-14T13:55:20.097Z,13.30
2019-01-14T13:57:48.626Z,13.20
2019-01-14T14:00:19.374Z,13.10
2019-01-14T14:02:47.890Z,12.90
2019-01-14T14:05:16.605Z,12.80
2019-01-14T14:07:45.616Z,12.60
2019-01-14T14:10:18.073Z,12.40
2019-01-14T14:12:47.154Z,12.20
2019-01-14T14:15:16.335Z,12.10
2019-01-14T14:17:44.662Z,11.90
2019-01-14T14:20:14.495Z,11.70
2019-01-14T14:22:46.320Z,11.60
2019-01-14T14:25:21.673Z,11.40
2019-01-14T14:27:50.431Z,11.30
2019-01-14T14:30:25.397Z,11.10
2019-01-14T14:32:53.886Z,11.10
2019-01-14T14:35:22.401Z,11.00
2019-01-14T14:37:52.061Z,10.90
2019-01-14T14:40:20.612Z,10.90
2019-01-14T14:42:49.097Z,10.80
2019-01-14T14:45:17.629Z,10.70
2019-01-14T14:47:46.852Z,10.70
2019-01-14T14:50:16.077Z,10.70
2019-01-14T14:52:44.684Z,10.60
2019-01-14T14:55:13.249Z,10.60
2019-01-14T14:57:42.953Z,10.60
2019-01-14T15:00:19.857Z,10.50
2019-01-14T15:02:48.600Z,10.50
2019-01-14T15:05:17.713Z,10.40
2019-01-14T15:07:46.328Z,10.40
2019-01-14T15:10:16.968Z,10.30
2019-01-14T15:12:45.513Z,10.30
2019-01-14T15:15:16.670Z,10.20
2019-01-14T15:17:45.286Z,10.20
2019-01-14T15:20:16.711Z,10.10
2019-01-14T15:22:45.280Z,10.10
2019-01-14T15:25:14.158Z,10.10
2019-01-14T15:27:43.122Z,10.10
2019-01-14T15:30:17.908Z,10.00
2019-01-14T15:32:47.573Z,10.00
2019-01-14T15:35:16.163Z,10.00
2019-01-14T15:37:44.606Z,9.90
2019-01-14T15:40:14.082Z,9.90
2019-01-14T15:42:42.608Z,9.80
2019-01-14T15:45:13.265Z,9.70
2019-01-14T15:47:41.666Z,9.70
2019-01-14T15:50:10.933Z,9.70
2019-01-14T15:52:40.635Z,9.60
2019-01-14T15:55:12.709Z,9.50
2019-01-14T15:57:42.129Z,9.40
2019-01-14T16:00:13.146Z,9.40
2019-01-14T16:02:41.722Z,9.30
2019-01-14T16:05:13.892Z,9.30
2019-01-14T16:07:42.722Z,9.30
2019-01-14T16:10:17.543Z,9.30
2019-01-14T16:12:47.235Z,9.30
2019-01-14T16:15:16.034Z,9.30
2019-01-14T16:17:45.600Z,9.40
2019-01-14T16:20:16.199Z,9.40
2019-01-14T16:22:45.300Z,9.50
2019-01-14T16:25:14.025Z,9.50
2019-01-14T16:27:42.950Z,9.50
2019-01-14T16:30:17.066Z,9.40
2019-01-14T16:32:45.946Z,9.50
2019-01-14T16:35:14.660Z,9.40
2019-01-14T16:37:43.817Z,9.40
2019-01-14T16:40:18.022Z,9.30
2019-01-14T16:42:43.862Z,9.30
2019-01-14T16:45:15.689Z,9.20
2019-01-14T16:47:45.601Z,9.20
2019-01-14T16:50:16.617Z,9.20
2019-01-14T16:52:45.599Z,9.20
2019-01-14T16:55:16.925Z,9.20
2019-01-14T16:57:48.372Z,9.20
2019-01-14T17:00:18.174Z,9.20
2019-01-14T17:02:49.046Z,9.10
2019-01-14T17:05:18.018Z,9.10
2019-01-14T17:07:46.717Z,9.00
2019-01-14T17:10:15.633Z,9.00
2019-01-14T17:12:44.381Z,9.00
2019-01-14T17:15:13.721Z,8.90
2019-01-14T17:17:42.789Z,8.80
2019-01-14T17:20:16.693Z,8.70
2019-01-14T17:22:45.546Z,8.70
2019-01-14T17:25:14.645Z,8.50
2019-01-14T17:27:45.128Z,8.50
2019-01-14T17:30:15.242Z,8.40
2019-01-14T17:32:45.267Z,8.30
2019-01-14T17:35:14.314Z,8.40
2019-01-14T17:37:43.116Z,8.30
2019-01-14T17:40:16.541Z,8.30
2019-01-14T17:42:45.918Z,8.30
2019-01-14T17:45:14.905Z,8.40
2019-01-14T17:47:44.189Z,8.50
2019-01-14T17:50:17.547Z,8.50
2019-01-14T17:52:47.059Z,8.50
2019-01-14T17:55:16.667Z,8.50
2019-01-14T17:57:45.397Z,8.50
2019-01-14T18:00:19.685Z,8.50
2019-01-14T18:02:48.082Z,8.50
2019-01-14T18:05:16.770Z,8.40
2019-01-14T18:07:45.253Z,8.40
2019-01-14T18:10:15.227Z,8.30
2019-01-14T18:12:44.026Z,8.30
2019-01-14T18:15:12.716Z,8.20
2019-01-14T18:17:43.809Z,8.10
2019-01-14T18:20:14.749Z,8.10
2019-01-14T18:22:44.106Z,8.10
2019-01-14T18:25:12.921Z,8.10
2019-01-14T18:27:41.673Z,8.10
2019-01-14T18:30:13.563Z,8.10
2019-01-14T18:32:42.318Z,8.10
2019-01-14T18:35:10.905Z,8.10
2019-01-14T18:37:39.649Z,8.00
2019-01-14T18:40:10.343Z,8.00
2019-01-14T18:42:38.890Z,8.10
2019-01-14T18:45:09.852Z,8.00
2019-01-14T18:47:38.378Z,7.90
2019-01-14T18:50:09.220Z,8.00
2019-01-14T18:52:37.768Z,8.00
2019-01-14T18:55:06.473Z,8.10
2019-01-14T18:57:34.786Z,8.00
2019-01-14T19:00:05.678Z,8.10
2019-01-14T19:02:34.269Z,8.00
2019-01-14T19:05:03.039Z,8.00
2019-01-14T19:07:31.436Z,7.90
2019-01-14T19:10:00.385Z,7.80
2019-01-14T19:12:29.489Z,7.80
2019-01-14T19:14:58.094Z,7.80
2019-01-14T19:17:26.734Z,7.70
2019-01-14T19:19:55.206Z,7.70
2019-01-14T19:22:23.793Z,7.70
2019-01-14T19:24:52.161Z,7.70
2019-01-14T19:27:20.830Z,7.60
2019-01-14T19:29:49.203Z,7.50
2019-01-14T19:32:18.108Z,7.50
2019-01-14T19:34:46.670Z,7.50
2019-01-14T19:37:15.123Z,7.70
2019-01-14T19:39:44.508Z,7.50
2019-01-14T19:42:12.990Z,7.50
2019-01-14T19:44:41.560Z,7.50
2019-01-14T19:47:10.229Z,7.40
2019-01-14T19:49:38.618Z,7.50
2019-01-14T19:52:07.285Z,7.40
2019-01-14T19:54:35.645Z,7.40
2019-01-14T19:57:04.322Z,7.30
2019-01-14T19:59:33.456Z,7.30
2019-01-14T20:02:02.213Z,7.30
2019-01-14T20:04:30.761Z,7.20
2019-01-14T20:06:59.232Z,7.30
2019-01-14T20:09:27.638Z,7.30
2019-01-14T20:11:56.233Z,7.30
2019-01-14T20:14:24.633Z,7.30
2019-01-14T20:16:53.058Z,7.30
2019-01-14T20:19:21.671Z,7.00
2019-01-14T20:21:50.153Z,7.30
2019-01-14T20:24:18.470Z,7.20
2019-01-14T20:26:46.849Z,7.20
2019-01-14T20:29:15.329Z,7.20
2019-01-14T20:31:45.364Z,7.30
2019-01-14T20:34:19.677Z,7.20
2019-01-14T20:36:50.625Z,7.10
2019-01-14T20:39:20.198Z,7.10
2019-01-14T20:41:48.603Z,7.20
2019-01-14T20:44:22.823Z,7.20
2019-01-14T20:46:52.153Z,7.10
2019-01-14T20:49:23.743Z,7.10
2019-01-14T20:51:54.504Z,6.70
2019-01-14T20:54:25.427Z,6.90
2019-01-14T20:57:01.081Z,6.90
2019-01-14T20:59:34.605Z,6.90
2019-01-14T21:02:05.443Z,6.90
2019-01-14T21:04:36.945Z,6.90
2019-01-14T21:07:09.710Z,6.90
2019-01-14T21:09:39.119Z,6.90
2019-01-14T21:12:08.817Z,6.90
2019-01-14T21:14:38.238Z,6.90
2019-01-14T21:17:08.450Z,6.80
2019-01-14T21:19:39.137Z,6.90
2019-01-14T21:22:08.151Z,6.90
2019-01-14T21:24:38.114Z,6.90
2019-01-14T21:27:10.359Z,6.80
2019-01-14T21:29:38.805Z,6.80
2019-01-14T21:32:07.214Z,6.80
2019-01-14T21:34:35.705Z,6.70
2019-01-14T21:37:05.245Z,6.70
2019-01-14T21:39:33.646Z,6.70
2019-01-14T21:42:02.045Z,6.70
2019-01-14T21:44:30.629Z,6.70
2019-01-14T21:46:59.234Z,6.80
2019-01-14T21:49:27.666Z,6.70
2019-01-14T21:51:56.083Z,6.80
2019-01-14T21:54:27.776Z,6.80
2019-01-14T21:56:56.205Z,6.80
2019-01-14T21:59:24.836Z,6.80
2019-01-14T22:01:53.395Z,6.80
2019-01-14T22:04:21.989Z,6.80
2019-01-14T22:06:50.605Z,6.80
2019-01-14T22:09:18.947Z,6.80
2019-01-14T22:11:47.582Z,6.80
2019-01-14T22:14:17.457Z,6.80
2019-01-14T22:16:46.081Z,6.80
2019-01-14T22:19:14.577Z,6.80
2019-01-14T22:21:43.042Z,6.80
2019-01-14T22:24:11.462Z,6.80
2019-01-14T22:26:39.992Z,6.80
2019-01-14T22:29:08.370Z,6.80
2019-01-14T22:34:55.510Z,6.80
2019-01-14T22:37:24.163Z,6.70
2019-01-14T22:39:52.911Z,6.60
2019-01-14T22:42:21.254Z,6.60
2019-01-14T22:44:50.315Z,6.50
2019-01-14T22:47:19.224Z,6.40
2019-01-14T22:49:47.734Z,6.30
2019-01-14T22:52:16.218Z,6.30
2019-01-14T22:54:44.542Z,6.20
2019-01-14T22:57:12.921Z,6.10
2019-01-14T22:59:43.274Z,6.20
2019-01-14T23:02:23.989Z,6.20
2019-01-14T23:04:52.973Z,6.20
2019-01-14T23:07:21.518Z,6.20
2019-01-14T23:09:50.199Z,6.20
2019-01-14T23:12:18.965Z,6.20
2019-01-14T23:14:47.491Z,6.30
2019-01-14T23:17:16.104Z,6.30
2019-01-14T23:19:44.529Z,6.30
2019-01-14T23:22:13.461Z,6.30
2019-01-14T23:24:42.217Z,6.20
2019-01-14T23:27:11.018Z,6.20
2019-01-14T23:29:39.441Z,6.20
2019-01-14T23:32:07.934Z,6.30
2019-01-14T23:34:37.049Z,6.20
2019-01-14T23:37:05.634Z,6.20
2019-01-14T23:39:33.954Z,6.30
2019-01-14T23:42:02.512Z,6.30
2019-01-14T23:44:30.941Z,6.30
2019-01-14T23:46:59.443Z,6.30
2019-01-14T23:49:27.998Z,6.20
2019-01-14T23:51:56.483Z,6.20
2019-01-14T23:54:24.814Z,6.20
2019-01-14T23:56:54.329Z,6.20
2019-01-14T23:59:22.705Z,6.10
